sensor_id;sensor_type;location;lat;lon;timestamp;P1;durP1;ratioP1;P2;durP2;ratioP2
20140;SDS011;10231;47.702;9.826;2024-02-15T00:02:13;2.50;;;2.30;;
20140;SDS011;10231;47.702;9.826;2024-02-15T00:04:39;2.50;;;2.30;;
20140;SDS011;10231;47.702;9.826;2024-02-15T00:07:04;2.73;;;2.37;;
20140;SDS011;10231;47.702;9.826;2024-02-15T00:09:30;2.53;;;2.17;;
20140;SDS011;10231;47.702;9.826;2024-02-15T00:11:56;2.47;;;2.27;;
20140;SDS011;10231;47.702;9.826;2024-02-15T00:14:22;2.90;;;2.27;;
20140;SDS011;10231;47.702;9.826;2024-02-15T00:16:47;2.07;;;1.97;;
20140;SDS011;10231;47.702;9.826;2024-02-15T00:19:13;3.10;;;2.03;;
20140;SDS011;10231;47.702;9.826;2024-02-15T00:21:44;2.77;;;1.93;;
20140;SDS011;10231;47.702;9.826;2024-02-15T00:24:10;3.60;;;2.37;;
20140;SDS011;10231;47.702;9.826;2024-02-15T00:26:36;2.07;;;1.83;;
20140;SDS011;10231;47.702;9.826;2024-02-15T00:29:02;2.87;;;2.40;;
20140;SDS011;10231;47.702;9.826;2024-02-15T00:31:28;3.50;;;2.27;;
20140;SDS011;10231;47.702;9.826;2024-02-15T00:33:53;2.27;;;2.10;;
20140;SDS011;10231;47.702;9.826;2024-02-15T00:36:20;6.40;;;2.23;;
20140;SDS011;10231;47.702;9.826;2024-02-15T00:38:45;3.40;;;1.97;;
20140;SDS011;10231;47.702;9.826;2024-02-15T00:41:11;2.27;;;1.93;;
20140;SDS011;10231;47.702;9.826;2024-02-15T00:43:37;2.57;;;2.33;;
20140;SDS011;10231;47.702;9.826;2024-02-15T00:46:02;1.90;;;1.80;;
20140;SDS011;10231;47.702;9.826;2024-02-15T00:48:28;2.47;;;2.27;;
20140;SDS011;10231;47.702;9.826;2024-02-15T00:50:55;3.33;;;2.20;;
20140;SDS011;10231;47.702;9.826;2024-02-15T00:53:20;2.37;;;2.17;;
20140;SDS011;10231;47.702;9.826;2024-02-15T00:55:46;2.73;;;2.30;;
20140;SDS011;10231;47.702;9.826;2024-02-15T00:58:12;3.37;;;2.40;;
20140;SDS011;10231;47.702;9.826;2024-02-15T01:00:37;2.50;;;2.30;;
20140;SDS011;10231;47.702;9.826;2024-02-15T01:03:03;2.47;;;2.20;;
20140;SDS011;10231;47.702;9.826;2024-02-15T01:05:29;2.27;;;2.07;;
20140;SDS011;10231;47.702;9.826;2024-02-15T01:07:55;4.00;;;3.00;;
20140;SDS011;10231;47.702;9.826;2024-02-15T01:10:21;3.03;;;2.73;;
20140;SDS011;10231;47.702;9.826;2024-02-15T01:12:48;3.53;;;2.80;;
20140;SDS011;10231;47.702;9.826;2024-02-15T01:15:14;2.40;;;2.20;;
20140;SDS011;10231;47.702;9.826;2024-02-15T01:17:43;2.40;;;2.20;;
20140;SDS011;10231;47.702;9.826;2024-02-15T01:20:09;2.73;;;1.93;;
20140;SDS011;10231;47.702;9.826;2024-02-15T01:22:35;2.20;;;2.10;;
20140;SDS011;10231;47.702;9.826;2024-02-15T01:25:01;2.40;;;2.20;;
20140;SDS011;10231;47.702;9.826;2024-02-15T01:27:27;5.73;;;2.70;;
20140;SDS011;10231;47.702;9.826;2024-02-15T01:29:58;6.33;;;5.70;;
20140;SDS011;10231;47.702;9.826;2024-02-15T01:32:24;5.77;;;5.17;;
20140;SDS011;10231;47.702;9.826;2024-02-15T01:34:50;4.93;;;3.70;;
20140;SDS011;10231;47.702;9.826;2024-02-15T01:37:18;3.27;;;2.77;;
20140;SDS011;10231;47.702;9.826;2024-02-15T01:39:45;4.27;;;2.43;;
20140;SDS011;10231;47.702;9.826;2024-02-15T01:42:11;3.00;;;2.60;;
20140;SDS011;10231;47.702;9.826;2024-02-15T01:44:39;3.03;;;2.40;;
20140;SDS011;10231;47.702;9.826;2024-02-15T01:47:05;2.80;;;2.30;;
20140;SDS011;10231;47.702;9.826;2024-02-15T01:49:31;2.50;;;2.30;;
20140;SDS011;10231;47.702;9.826;2024-02-15T01:51:58;2.10;;;2.00;;
20140;SDS011;10231;47.702;9.826;2024-02-15T01:54:25;3.30;;;2.20;;
20140;SDS011;10231;47.702;9.826;2024-02-15T01:56:51;2.30;;;2.13;;
20140;SDS011;10231;47.702;9.826;2024-02-15T01:59:17;2.80;;;2.17;;
20140;SDS011;10231;47.702;9.826;2024-02-15T02:01:44;2.13;;;1.93;;
20140;SDS011;10231;47.702;9.826;2024-02-15T02:04:10;3.43;;;1.73;;
20140;SDS011;10231;47.702;9.826;2024-02-15T02:06:37;2.30;;;2.10;;
20140;SDS011;10231;47.702;9.826;2024-02-15T02:09:03;2.83;;;2.00;;
20140;SDS011;10231;47.702;9.826;2024-02-15T02:11:28;2.03;;;1.80;;
20140;SDS011;10231;47.702;9.826;2024-02-15T02:13:55;2.30;;;1.80;;
20140;SDS011;10231;47.702;9.826;2024-02-15T02:16:27;2.27;;;1.80;;
20140;SDS011;10231;47.702;9.826;2024-02-15T02:18:54;1.70;;;1.60;;
20140;SDS011;10231;47.702;9.826;2024-02-15T02:21:21;2.03;;;1.83;;
20140;SDS011;10231;47.702;9.826;2024-02-15T02:23:48;2.73;;;1.80;;
20140;SDS011;10231;47.702;9.826;2024-02-15T02:26:22;2.70;;;1.93;;
20140;SDS011;10231;47.702;9.826;2024-02-15T02:28:48;3.33;;;2.00;;
20140;SDS011;10231;47.702;9.826;2024-02-15T02:31:14;2.10;;;2.00;;
20140;SDS011;10231;47.702;9.826;2024-02-15T02:33:41;3.33;;;2.23;;
20140;SDS011;10231;47.702;9.826;2024-02-15T02:36:07;3.60;;;2.30;;
20140;SDS011;10231;47.702;9.826;2024-02-15T02:38:35;2.30;;;1.53;;
20140;SDS011;10231;47.702;9.826;2024-02-15T02:41:03;4.50;;;1.77;;
20140;SDS011;10231;47.702;9.826;2024-02-15T02:43:29;2.30;;;2.10;;
20140;SDS011;10231;47.702;9.826;2024-02-15T02:45:55;2.47;;;2.13;;
20140;SDS011;10231;47.702;9.826;2024-02-15T02:48:20;2.30;;;2.10;;
20140;SDS011;10231;47.702;9.826;2024-02-15T02:50:46;1.77;;;1.67;;
20140;SDS011;10231;47.702;9.826;2024-02-15T02:53:13;2.13;;;1.93;;
20140;SDS011;10231;47.702;9.826;2024-02-15T02:55:40;1.90;;;1.80;;
20140;SDS011;10231;47.702;9.826;2024-02-15T03:01:28;2.80;;;1.90;;
20140;SDS011;10231;47.702;9.826;2024-02-15T03:03:53;5.70;;;1.70;;
20140;SDS011;10231;47.702;9.826;2024-02-15T03:06:22;3.10;;;2.40;;
20140;SDS011;10231;47.702;9.826;2024-02-15T03:08:49;1.93;;;1.80;;
20140;SDS011;10231;47.702;9.826;2024-02-15T03:11:19;1.50;;;1.40;;
20140;SDS011;10231;47.702;9.826;2024-02-15T03:13:45;1.80;;;1.70;;
20140;SDS011;10231;47.702;9.826;2024-02-15T03:16:10;2.70;;;1.80;;
20140;SDS011;10231;47.702;9.826;2024-02-15T03:18:36;2.67;;;1.77;;
20140;SDS011;10231;47.702;9.826;2024-02-15T03:21:02;2.30;;;2.10;;
20140;SDS011;10231;47.702;9.826;2024-02-15T03:23:29;2.67;;;1.77;;
20140;SDS011;10231;47.702;9.826;2024-02-15T03:25:55;2.07;;;1.90;;
20140;SDS011;10231;47.702;9.826;2024-02-15T03:28:21;3.07;;;2.20;;
20140;SDS011;10231;47.702;9.826;2024-02-15T03:30:48;2.80;;;2.13;;
20140;SDS011;10231;47.702;9.826;2024-02-15T03:33:15;2.60;;;2.23;;
20140;SDS011;10231;47.702;9.826;2024-02-15T03:35:40;2.00;;;1.90;;
20140;SDS011;10231;47.702;9.826;2024-02-15T03:38:06;2.03;;;1.83;;
20140;SDS011;10231;47.702;9.826;2024-02-15T03:40:32;3.47;;;2.10;;
20140;SDS011;10231;47.702;9.826;2024-02-15T03:42:57;2.73;;;1.93;;
20140;SDS011;10231;47.702;9.826;2024-02-15T03:45:23;2.57;;;1.70;;
20140;SDS011;10231;47.702;9.826;2024-02-15T03:47:50;1.80;;;1.70;;
20140;SDS011;10231;47.702;9.826;2024-02-15T03:50:16;1.73;;;1.50;;
20140;SDS011;10231;47.702;9.826;2024-02-15T03:52:43;2.20;;;1.90;;
20140;SDS011;10231;47.702;9.826;2024-02-15T03:55:09;2.10;;;1.90;;
20140;SDS011;10231;47.702;9.826;2024-02-15T03:57:37;2.60;;;1.60;;
20140;SDS011;10231;47.702;9.826;2024-02-15T04:00:08;2.20;;;2.00;;
20140;SDS011;10231;47.702;9.826;2024-02-15T04:02:36;2.07;;;1.70;;
20140;SDS011;10231;47.702;9.826;2024-02-15T04:05:02;2.47;;;2.00;;
20140;SDS011;10231;47.702;9.826;2024-02-15T04:07:30;2.93;;;1.70;;
20140;SDS011;10231;47.702;9.826;2024-02-15T04:09:55;3.67;;;1.90;;
20140;SDS011;10231;47.702;9.826;2024-02-15T04:12:21;2.50;;;1.83;;
20140;SDS011;10231;47.702;9.826;2024-02-15T04:14:48;2.83;;;2.60;;
20140;SDS011;10231;47.702;9.826;2024-02-15T04:17:14;1.80;;;1.70;;
20140;SDS011;10231;47.702;9.826;2024-02-15T04:19:43;4.93;;;2.10;;
20140;SDS011;10231;47.702;9.826;2024-02-15T04:22:10;2.17;;;2.00;;
20140;SDS011;10231;47.702;9.826;2024-02-15T04:24:36;2.33;;;1.60;;
20140;SDS011;10231;47.702;9.826;2024-02-15T04:27:08;2.00;;;1.80;;
20140;SDS011;10231;47.702;9.826;2024-02-15T04:29:37;1.73;;;1.63;;
20140;SDS011;10231;47.702;9.826;2024-02-15T04:32:05;2.20;;;2.00;;
20140;SDS011;10231;47.702;9.826;2024-02-15T04:34:34;1.50;;;1.40;;
20140;SDS011;10231;47.702;9.826;2024-02-15T04:37:00;1.70;;;1.60;;
20140;SDS011;10231;47.702;9.826;2024-02-15T04:39:31;2.47;;;1.57;;
20140;SDS011;10231;47.702;9.826;2024-02-15T04:41:57;1.60;;;1.50;;
20140;SDS011;10231;47.702;9.826;2024-02-15T04:44:22;1.90;;;1.80;;
20140;SDS011;10231;47.702;9.826;2024-02-15T04:46:52;2.33;;;1.60;;
20140;SDS011;10231;47.702;9.826;2024-02-15T04:49:20;2.17;;;1.60;;
20140;SDS011;10231;47.702;9.826;2024-02-15T04:51:47;2.27;;;1.30;;
20140;SDS011;10231;47.702;9.826;2024-02-15T04:54:13;2.47;;;1.90;;
20140;SDS011;10231;47.702;9.826;2024-02-15T04:56:39;2.50;;;1.30;;
20140;SDS011;10231;47.702;9.826;2024-02-15T04:59:06;2.87;;;1.30;;
20140;SDS011;10231;47.702;9.826;2024-02-15T05:01:34;1.83;;;1.73;;
20140;SDS011;10231;47.702;9.826;2024-02-15T05:04:00;2.27;;;1.47;;
20140;SDS011;10231;47.702;9.826;2024-02-15T05:06:29;1.60;;;1.50;;
20140;SDS011;10231;47.702;9.826;2024-02-15T05:08:55;1.33;;;1.23;;
20140;SDS011;10231;47.702;9.826;2024-02-15T05:11:22;1.40;;;1.30;;
20140;SDS011;10231;47.702;9.826;2024-02-15T05:13:48;2.00;;;1.80;;
20140;SDS011;10231;47.702;9.826;2024-02-15T05:16:15;1.27;;;1.20;;
20140;SDS011;10231;47.702;9.826;2024-02-15T05:18:41;1.87;;;1.50;;
20140;SDS011;10231;47.702;9.826;2024-02-15T05:21:07;1.93;;;1.83;;
20140;SDS011;10231;47.702;9.826;2024-02-15T05:23:35;1.57;;;1.47;;
20140;SDS011;10231;47.702;9.826;2024-02-15T05:26:02;2.70;;;1.60;;
20140;SDS011;10231;47.702;9.826;2024-02-15T05:28:28;1.87;;;1.60;;
20140;SDS011;10231;47.702;9.826;2024-02-15T05:33:41;3.73;;;1.60;;
20140;SDS011;10231;47.702;9.826;2024-02-15T05:36:14;2.77;;;1.77;;
20140;SDS011;10231;47.702;9.826;2024-02-15T05:38:40;1.70;;;1.60;;
20140;SDS011;10231;47.702;9.826;2024-02-15T05:41:06;2.43;;;1.50;;
20140;SDS011;10231;47.702;9.826;2024-02-15T05:43:35;2.03;;;1.40;;
20140;SDS011;10231;47.702;9.826;2024-02-15T05:46:02;1.80;;;1.37;;
20140;SDS011;10231;47.702;9.826;2024-02-15T05:48:28;1.50;;;1.40;;
20140;SDS011;10231;47.702;9.826;2024-02-15T05:50:54;1.90;;;1.30;;
20140;SDS011;10231;47.702;9.826;2024-02-15T05:53:20;1.33;;;1.23;;
20140;SDS011;10231;47.702;9.826;2024-02-15T05:55:46;1.80;;;1.60;;
20140;SDS011;10231;47.702;9.826;2024-02-15T05:58:14;1.97;;;1.87;;
20140;SDS011;10231;47.702;9.826;2024-02-15T06:00:40;1.60;;;1.50;;
20140;SDS011;10231;47.702;9.826;2024-02-15T06:03:06;2.10;;;1.90;;
20140;SDS011;10231;47.702;9.826;2024-02-15T06:05:34;3.07;;;1.87;;
20140;SDS011;10231;47.702;9.826;2024-02-15T06:08:00;2.13;;;1.50;;
20140;SDS011;10231;47.702;9.826;2024-02-15T06:10:25;2.40;;;1.93;;
20140;SDS011;10231;47.702;9.826;2024-02-15T06:12:51;3.80;;;1.60;;
20140;SDS011;10231;47.702;9.826;2024-02-15T06:15:17;2.17;;;1.97;;
20140;SDS011;10231;47.702;9.826;2024-02-15T06:17:43;1.63;;;1.53;;
20140;SDS011;10231;47.702;9.826;2024-02-15T06:20:10;3.17;;;1.53;;
20140;SDS011;10231;47.702;9.826;2024-02-15T06:22:40;4.27;;;1.67;;
20140;SDS011;10231;47.702;9.826;2024-02-15T06:25:06;2.57;;;1.60;;
20140;SDS011;10231;47.702;9.826;2024-02-15T06:27:32;3.30;;;1.73;;
20140;SDS011;10231;47.702;9.826;2024-02-15T06:29:58;1.93;;;1.73;;
20140;SDS011;10231;47.702;9.826;2024-02-15T06:32:42;1.70;;;1.60;;
20140;SDS011;10231;47.702;9.826;2024-02-15T06:35:27;3.27;;;1.90;;
20140;SDS011;10231;47.702;9.826;2024-02-15T06:38:11;3.73;;;1.90;;
20140;SDS011;10231;47.702;9.826;2024-02-15T06:40:55;2.80;;;2.10;;
20140;SDS011;10231;47.702;9.826;2024-02-15T06:43:20;2.53;;;1.70;;
20140;SDS011;10231;47.702;9.826;2024-02-15T06:45:46;3.87;;;2.03;;
20140;SDS011;10231;47.702;9.826;2024-02-15T06:48:12;4.90;;;2.20;;
20140;SDS011;10231;47.702;9.826;2024-02-15T06:50:38;3.17;;;1.77;;
20140;SDS011;10231;47.702;9.826;2024-02-15T06:53:04;4.70;;;2.00;;
20140;SDS011;10231;47.702;9.826;2024-02-15T06:55:30;2.43;;;1.90;;
20140;SDS011;10231;47.702;9.826;2024-02-15T06:57:55;3.80;;;3.40;;
20140;SDS011;10231;47.702;9.826;2024-02-15T07:00:21;5.77;;;3.00;;
20140;SDS011;10231;47.702;9.826;2024-02-15T07:02:47;4.00;;;2.40;;
20140;SDS011;10231;47.702;9.826;2024-02-15T07:05:13;3.30;;;2.20;;
20140;SDS011;10231;47.702;9.826;2024-02-15T07:07:39;2.40;;;2.20;;
20140;SDS011;10231;47.702;9.826;2024-02-15T07:10:07;3.47;;;2.30;;
20140;SDS011;10231;47.702;9.826;2024-02-15T07:12:34;2.17;;;1.90;;
20140;SDS011;10231;47.702;9.826;2024-02-15T07:14:59;9.43;;;2.43;;
20140;SDS011;10231;47.702;9.826;2024-02-15T07:17:27;3.47;;;1.80;;
20140;SDS011;10231;47.702;9.826;2024-02-15T07:19:53;1.83;;;1.73;;
20140;SDS011;10231;47.702;9.826;2024-02-15T07:22:18;4.70;;;1.63;;
20140;SDS011;10231;47.702;9.826;2024-02-15T07:24:44;2.00;;;1.60;;
20140;SDS011;10231;47.702;9.826;2024-02-15T07:27:09;2.73;;;1.73;;
20140;SDS011;10231;47.702;9.826;2024-02-15T07:29:35;3.67;;;1.90;;
20140;SDS011;10231;47.702;9.826;2024-02-15T07:32:03;6.27;;;2.93;;
20140;SDS011;10231;47.702;9.826;2024-02-15T07:34:32;3.63;;;2.00;;
20140;SDS011;10231;47.702;9.826;2024-02-15T07:36:58;2.47;;;1.80;;
20140;SDS011;10231;47.702;9.826;2024-02-15T07:39:24;3.90;;;2.10;;
20140;SDS011;10231;47.702;9.826;2024-02-15T07:41:53;2.30;;;1.90;;
20140;SDS011;10231;47.702;9.826;2024-02-15T07:44:19;2.03;;;1.93;;
20140;SDS011;10231;47.702;9.826;2024-02-15T07:46:47;1.97;;;1.80;;
20140;SDS011;10231;47.702;9.826;2024-02-15T07:49:12;3.00;;;1.93;;
20140;SDS011;10231;47.702;9.826;2024-02-15T07:51:38;3.97;;;2.20;;
20140;SDS011;10231;47.702;9.826;2024-02-15T07:54:03;2.93;;;2.00;;
20140;SDS011;10231;47.702;9.826;2024-02-15T07:56:29;2.00;;;1.80;;
20140;SDS011;10231;47.702;9.826;2024-02-15T07:58:55;3.93;;;2.00;;
20140;SDS011;10231;47.702;9.826;2024-02-15T08:01:21;3.10;;;1.70;;
20140;SDS011;10231;47.702;9.826;2024-02-15T08:03:47;2.30;;;2.10;;
20140;SDS011;10231;47.702;9.826;2024-02-15T08:06:13;2.23;;;2.03;;
20140;SDS011;10231;47.702;9.826;2024-02-15T08:08:40;3.10;;;2.23;;
20140;SDS011;10231;47.702;9.826;2024-02-15T08:11:15;3.80;;;2.50;;
20140;SDS011;10231;47.702;9.826;2024-02-15T08:13:44;4.00;;;2.33;;
20140;SDS011;10231;47.702;9.826;2024-02-15T08:16:21;4.13;;;2.60;;
20140;SDS011;10231;47.702;9.826;2024-02-15T08:18:48;3.63;;;2.20;;
20140;SDS011;10231;47.702;9.826;2024-02-15T08:21:17;2.90;;;2.23;;
20140;SDS011;10231;47.702;9.826;2024-02-15T08:23:43;2.97;;;2.03;;
20140;SDS011;10231;47.702;9.826;2024-02-15T08:26:08;2.90;;;2.20;;
20140;SDS011;10231;47.702;9.826;2024-02-15T08:28:36;2.90;;;2.27;;
20140;SDS011;10231;47.702;9.826;2024-02-15T08:31:01;2.10;;;1.93;;
20140;SDS011;10231;47.702;9.826;2024-02-15T08:33:28;2.00;;;1.77;;
20140;SDS011;10231;47.702;9.826;2024-02-15T08:35:55;2.40;;;2.20;;
20140;SDS011;10231;47.702;9.826;2024-02-15T08:38:23;2.60;;;1.87;;
20140;SDS011;10231;47.702;9.826;2024-02-15T08:40:49;1.73;;;1.63;;
20140;SDS011;10231;47.702;9.826;2024-02-15T08:43:15;3.13;;;1.80;;
20140;SDS011;10231;47.702;9.826;2024-02-15T08:45:41;2.33;;;1.63;;
20140;SDS011;10231;47.702;9.826;2024-02-15T08:48:08;2.73;;;1.83;;
20140;SDS011;10231;47.702;9.826;2024-02-15T08:50:34;4.33;;;1.90;;
20140;SDS011;10231;47.702;9.826;2024-02-15T08:52:59;3.20;;;1.67;;
20140;SDS011;10231;47.702;9.826;2024-02-15T08:55:31;3.13;;;1.70;;
20140;SDS011;10231;47.702;9.826;2024-02-15T08:57:56;2.10;;;1.90;;
20140;SDS011;10231;47.702;9.826;2024-02-15T09:00:22;3.67;;;1.90;;
20140;SDS011;10231;47.702;9.826;2024-02-15T09:02:49;2.13;;;1.97;;
20140;SDS011;10231;47.702;9.826;2024-02-15T09:05:14;3.03;;;2.27;;
20140;SDS011;10231;47.702;9.826;2024-02-15T09:07:44;2.33;;;1.50;;
20140;SDS011;10231;47.702;9.826;2024-02-15T09:10:14;1.87;;;1.43;;
20140;SDS011;10231;47.702;9.826;2024-02-15T09:12:42;2.63;;;1.60;;
20140;SDS011;10231;47.702;9.826;2024-02-15T09:15:10;1.30;;;1.20;;
20140;SDS011;10231;47.702;9.826;2024-02-15T09:17:39;2.10;;;1.77;;
20140;SDS011;10231;47.702;9.826;2024-02-15T09:20:08;3.83;;;0.97;;
20140;SDS011;10231;47.702;9.826;2024-02-15T09:22:40;1.03;;;0.87;;
20140;SDS011;10231;47.702;9.826;2024-02-15T09:25:06;1.03;;;0.83;;
20140;SDS011;10231;47.702;9.826;2024-02-15T09:27:33;0.70;;;0.70;;
20140;SDS011;10231;47.702;9.826;2024-02-15T09:29:58;0.97;;;0.70;;
20140;SDS011;10231;47.702;9.826;2024-02-15T09:32:24;1.80;;;0.70;;
20140;SDS011;10231;47.702;9.826;2024-02-15T09:34:49;0.93;;;0.80;;
20140;SDS011;10231;47.702;9.826;2024-02-15T09:37:15;0.70;;;0.60;;
20140;SDS011;10231;47.702;9.826;2024-02-15T09:39:40;1.60;;;0.60;;
20140;SDS011;10231;47.702;9.826;2024-02-15T09:42:06;0.60;;;0.60;;
20140;SDS011;10231;47.702;9.826;2024-02-15T09:44:32;0.63;;;0.60;;
20140;SDS011;10231;47.702;9.826;2024-02-15T09:47:04;0.70;;;0.50;;
20140;SDS011;10231;47.702;9.826;2024-02-15T09:49:37;0.50;;;0.50;;
20140;SDS011;10231;47.702;9.826;2024-02-15T09:52:06;0.60;;;0.60;;
20140;SDS011;10231;47.702;9.826;2024-02-15T09:54:37;0.50;;;0.50;;
20140;SDS011;10231;47.702;9.826;2024-02-15T09:57:08;0.60;;;0.60;;
20140;SDS011;10231;47.702;9.826;2024-02-15T09:59:34;0.80;;;0.60;;
20140;SDS011;10231;47.702;9.826;2024-02-15T10:02:01;0.60;;;0.60;;
20140;SDS011;10231;47.702;9.826;2024-02-15T10:04:27;0.57;;;0.57;;
20140;SDS011;10231;47.702;9.826;2024-02-15T10:06:53;0.80;;;0.60;;
20140;SDS011;10231;47.702;9.826;2024-02-15T10:09:28;0.43;;;0.43;;
20140;SDS011;10231;47.702;9.826;2024-02-15T10:11:58;0.60;;;0.60;;
20140;SDS011;10231;47.702;9.826;2024-02-15T10:14:28;0.30;;;0.30;;
20140;SDS011;10231;47.702;9.826;2024-02-15T10:16:54;0.87;;;0.30;;
20140;SDS011;10231;47.702;9.826;2024-02-15T10:19:20;1.50;;;0.40;;
20140;SDS011;10231;47.702;9.826;2024-02-15T10:21:53;1.23;;;1.13;;
20140;SDS011;10231;47.702;9.826;2024-02-15T10:24:22;0.40;;;0.40;;
20140;SDS011;10231;47.702;9.826;2024-02-15T10:26:59;0.40;;;0.40;;
20140;SDS011;10231;47.702;9.826;2024-02-15T10:29:29;0.40;;;0.40;;
20140;SDS011;10231;47.702;9.826;2024-02-15T10:31:59;0.73;;;0.40;;
20140;SDS011;10231;47.702;9.826;2024-02-15T10:34:25;0.40;;;0.40;;
20140;SDS011;10231;47.702;9.826;2024-02-15T10:36:55;2.00;;;0.50;;
20140;SDS011;10231;47.702;9.826;2024-02-15T10:40:03;1.17;;;0.73;;
20140;SDS011;10231;47.702;9.826;2024-02-15T10:42:32;0.90;;;0.30;;
20140;SDS011;10231;47.702;9.826;2024-02-15T10:45:01;0.30;;;0.30;;
20140;SDS011;10231;47.702;9.826;2024-02-15T10:47:30;0.83;;;0.50;;
20140;SDS011;10231;47.702;9.826;2024-02-15T10:49:56;0.40;;;0.40;;
20140;SDS011;10231;47.702;9.826;2024-02-15T10:52:24;2.00;;;0.50;;
20140;SDS011;10231;47.702;9.826;2024-02-15T10:54:56;1.73;;;0.43;;
20140;SDS011;10231;47.702;9.826;2024-02-15T10:57:28;0.40;;;0.40;;
20140;SDS011;10231;47.702;9.826;2024-02-15T10:59:58;1.27;;;0.40;;
20140;SDS011;10231;47.702;9.826;2024-02-15T11:02:36;0.67;;;0.40;;
20140;SDS011;10231;47.702;9.826;2024-02-15T11:05:06;1.30;;;0.40;;
20140;SDS011;10231;47.702;9.826;2024-02-15T11:07:37;0.50;;;0.43;;
20140;SDS011;10231;47.702;9.826;2024-02-15T11:10:06;0.80;;;0.40;;
20140;SDS011;10231;47.702;9.826;2024-02-15T11:12:35;1.67;;;0.50;;
20140;SDS011;10231;47.702;9.826;2024-02-15T11:15:01;0.80;;;0.40;;
20140;SDS011;10231;47.702;9.826;2024-02-15T11:20:08;0.27;;;0.27;;
20140;SDS011;10231;47.702;9.826;2024-02-15T11:22:36;0.30;;;0.30;;
20140;SDS011;10231;47.702;9.826;2024-02-15T11:25:05;0.30;;;0.30;;
20140;SDS011;10231;47.702;9.826;2024-02-15T11:27:36;0.67;;;0.30;;
20140;SDS011;10231;47.702;9.826;2024-02-15T11:30:04;0.80;;;0.70;;
20140;SDS011;10231;47.702;9.826;2024-02-15T11:32:44;0.87;;;0.60;;
20140;SDS011;10231;47.702;9.826;2024-02-15T11:35:15;0.40;;;0.40;;
20140;SDS011;10231;47.702;9.826;2024-02-15T11:42:52;1.10;;;0.40;;
20140;SDS011;10231;47.702;9.826;2024-02-15T11:45:19;0.57;;;0.50;;
20140;SDS011;10231;47.702;9.826;2024-02-15T11:47:49;1.50;;;0.40;;
20140;SDS011;10231;47.702;9.826;2024-02-15T11:50:17;0.20;;;0.20;;
20140;SDS011;10231;47.702;9.826;2024-02-15T11:52:45;0.30;;;0.30;;
20140;SDS011;10231;47.702;9.826;2024-02-15T11:55:13;1.03;;;0.30;;
20140;SDS011;10231;47.702;9.826;2024-02-15T11:57:44;0.20;;;0.20;;
20140;SDS011;10231;47.702;9.826;2024-02-15T12:00:30;0.30;;;0.30;;
20140;SDS011;10231;47.702;9.826;2024-02-15T12:03:14;0.20;;;0.20;;
20140;SDS011;10231;47.702;9.826;2024-02-15T12:05:59;0.50;;;0.30;;
20140;SDS011;10231;47.702;9.826;2024-02-15T12:08:44;0.27;;;0.27;;
20140;SDS011;10231;47.702;9.826;2024-02-15T12:11:32;1.90;;;0.30;;
20140;SDS011;10231;47.702;9.826;2024-02-15T12:14:16;0.30;;;0.30;;
20140;SDS011;10231;47.702;9.826;2024-02-15T12:17:02;0.53;;;0.30;;
20140;SDS011;10231;47.702;9.826;2024-02-15T12:19:47;1.30;;;0.60;;
20140;SDS011;10231;47.702;9.826;2024-02-15T12:22:15;0.43;;;0.40;;
20140;SDS011;10231;47.702;9.826;2024-02-15T12:24:59;0.70;;;0.50;;
20140;SDS011;10231;47.702;9.826;2024-02-15T12:27:25;0.73;;;0.60;;
20140;SDS011;10231;47.702;9.826;2024-02-15T12:30:01;0.60;;;0.50;;
20140;SDS011;10231;47.702;9.826;2024-02-15T12:32:30;1.60;;;0.63;;
20140;SDS011;10231;47.702;9.826;2024-02-15T12:35:14;0.83;;;0.50;;
20140;SDS011;10231;47.702;9.826;2024-02-15T12:37:48;0.67;;;0.60;;
20140;SDS011;10231;47.702;9.826;2024-02-15T12:40:34;0.40;;;0.40;;
20140;SDS011;10231;47.702;9.826;2024-02-15T12:43:01;3.40;;;1.40;;
20140;SDS011;10231;47.702;9.826;2024-02-15T12:45:30;1.10;;;1.00;;
20140;SDS011;10231;47.702;9.826;2024-02-15T12:47:56;1.30;;;0.80;;
20140;SDS011;10231;47.702;9.826;2024-02-15T12:50:23;1.13;;;0.80;;
20140;SDS011;10231;47.702;9.826;2024-02-15T12:52:53;0.50;;;0.50;;
20140;SDS011;10231;47.702;9.826;2024-02-15T12:55:20;0.97;;;0.83;;
20140;SDS011;10231;47.702;9.826;2024-02-15T12:57:52;0.60;;;0.60;;
20140;SDS011;10231;47.702;9.826;2024-02-15T13:00:24;1.00;;;0.80;;
20140;SDS011;10231;47.702;9.826;2024-02-15T13:02:54;0.80;;;0.67;;
20140;SDS011;10231;47.702;9.826;2024-02-15T13:05:21;1.23;;;1.13;;
20140;SDS011;10231;47.702;9.826;2024-02-15T13:07:48;1.50;;;1.30;;
20140;SDS011;10231;47.702;9.826;2024-02-15T13:10:14;1.47;;;0.87;;
20140;SDS011;10231;47.702;9.826;2024-02-15T13:12:44;1.80;;;1.17;;
20140;SDS011;10231;47.702;9.826;2024-02-15T13:15:13;1.23;;;1.13;;
20140;SDS011;10231;47.702;9.826;2024-02-15T13:17:43;1.43;;;1.30;;
20140;SDS011;10231;47.702;9.826;2024-02-15T13:20:10;1.40;;;1.00;;
20140;SDS011;10231;47.702;9.826;2024-02-15T13:22:39;1.47;;;1.20;;
20140;SDS011;10231;47.702;9.826;2024-02-15T13:25:06;1.20;;;1.10;;
20140;SDS011;10231;47.702;9.826;2024-02-15T13:27:35;1.30;;;1.17;;
20140;SDS011;10231;47.702;9.826;2024-02-15T13:30:05;1.53;;;1.03;;
20140;SDS011;10231;47.702;9.826;2024-02-15T13:32:34;0.83;;;0.83;;
20140;SDS011;10231;47.702;9.826;2024-02-15T13:35:04;1.83;;;1.37;;
20140;SDS011;10231;47.702;9.826;2024-02-15T13:37:45;1.10;;;1.00;;
20140;SDS011;10231;47.702;9.826;2024-02-15T13:40:12;6.07;;;1.20;;
20140;SDS011;10231;47.702;9.826;2024-02-15T13:42:44;0.60;;;0.60;;
20140;SDS011;10231;47.702;9.826;2024-02-15T13:45:15;0.70;;;0.70;;
20140;SDS011;10231;47.702;9.826;2024-02-15T13:47:43;0.50;;;0.50;;
20140;SDS011;10231;47.702;9.826;2024-02-15T13:50:11;1.27;;;0.40;;
20140;SDS011;10231;47.702;9.826;2024-02-15T13:52:39;0.40;;;0.40;;
20140;SDS011;10231;47.702;9.826;2024-02-15T13:55:09;0.40;;;0.40;;
20140;SDS011;10231;47.702;9.826;2024-02-15T13:57:39;0.87;;;0.40;;
20140;SDS011;10231;47.702;9.826;2024-02-15T14:00:09;0.20;;;0.20;;
20140;SDS011;10231;47.702;9.826;2024-02-15T14:02:46;0.30;;;0.30;;
20140;SDS011;10231;47.702;9.826;2024-02-15T14:05:13;0.20;;;0.20;;
20140;SDS011;10231;47.702;9.826;2024-02-15T14:07:39;0.53;;;0.40;;
20140;SDS011;10231;47.702;9.826;2024-02-15T14:10:05;1.13;;;0.40;;
20140;SDS011;10231;47.702;9.826;2024-02-15T14:12:31;0.50;;;0.50;;
20140;SDS011;10231;47.702;9.826;2024-02-15T14:14:57;0.90;;;0.73;;
20140;SDS011;10231;47.702;9.826;2024-02-15T14:17:22;1.23;;;0.50;;
20140;SDS011;10231;47.702;9.826;2024-02-15T14:19:48;0.63;;;0.40;;
20140;SDS011;10231;47.702;9.826;2024-02-15T14:22:14;0.50;;;0.50;;
20140;SDS011;10231;47.702;9.826;2024-02-15T14:24:44;0.57;;;0.40;;
20140;SDS011;10231;47.702;9.826;2024-02-15T14:27:10;0.67;;;0.30;;
20140;SDS011;10231;47.702;9.826;2024-02-15T14:29:36;0.30;;;0.30;;
20140;SDS011;10231;47.702;9.826;2024-02-15T14:32:09;0.50;;;0.40;;
20140;SDS011;10231;47.702;9.826;2024-02-15T14:34:56;0.50;;;0.50;;
20140;SDS011;10231;47.702;9.826;2024-02-15T14:37:22;0.53;;;0.53;;
20140;SDS011;10231;47.702;9.826;2024-02-15T14:39:49;0.73;;;0.60;;
20140;SDS011;10231;47.702;9.826;2024-02-15T14:42:14;0.43;;;0.43;;
20140;SDS011;10231;47.702;9.826;2024-02-15T14:44:41;0.40;;;0.40;;
20140;SDS011;10231;47.702;9.826;2024-02-15T14:47:08;0.43;;;0.43;;
20140;SDS011;10231;47.702;9.826;2024-02-15T14:49:33;0.40;;;0.40;;
20140;SDS011;10231;47.702;9.826;2024-02-15T14:51:59;3.50;;;0.50;;
20140;SDS011;10231;47.702;9.826;2024-02-15T14:54:26;0.80;;;0.80;;
20140;SDS011;10231;47.702;9.826;2024-02-15T14:56:52;0.63;;;0.47;;
20140;SDS011;10231;47.702;9.826;2024-02-15T14:59:19;1.27;;;0.70;;
20140;SDS011;10231;47.702;9.826;2024-02-15T15:01:44;1.73;;;0.60;;
20140;SDS011;10231;47.702;9.826;2024-02-15T15:04:10;1.23;;;0.80;;
20140;SDS011;10231;47.702;9.826;2024-02-15T15:06:36;0.60;;;0.60;;
20140;SDS011;10231;47.702;9.826;2024-02-15T15:09:21;0.73;;;0.73;;